Botesdale, United Kingdom
Current Conditions -  °F | °C
As of 7:50 PM on Wednesday 26 Nov 2014 (Local Time) from EGUW Reporting Station
Moderate Fog Moderate Fog  
Wind Chill: 48°   Ceiling: 100
Heat Index: 48°   Visibility: 0.12mi
Dew Point: 48°   Wind: 2mph
Humidity: 100%   Direction: 170°S
Pressure: 29.77"   Gusts: NA
Location:  52.34°N, 1°E
Report Text: EGUW 261950Z 17002KT 0200 FG OVC001 09/09 Q1008 RED NOSIG
Loading
Personal Weather Stations






























Interactive Weather Map New forecast layout! Learn more

10-Day Weather Forecast

Advertisements
Track Severe Weather on mobile